Time,TemperatureF,DewpointF,PressureIn,WindDirection,WindDirectionDegrees,WindSpeedMPH,WindSpeedGustMPH,Humidity,HourlyPrecipIn,Conditions,Clouds,dailyrainin,SoftwareType,DateUTC
2013-03-25 00:01:00,50.0,22.0,-100.00,ENE,58,7.0,9.0,33,-99.99,,,-99.99,,2013-03-25 07:01:00,
2013-03-25 00:12:00,49.0,22.0,-100.00,NE,53,6.0,9.0,34,-99.99,,,-99.99,,2013-03-25 07:12:00,
2013-03-25 00:21:00,49.0,21.0,-100.00,NE,55,8.0,10.0,33,-99.99,,,-99.99,,2013-03-25 07:21:00,
2013-03-25 00:31:00,48.0,21.0,-100.00,NE,56,8.0,9.0,34,-99.99,,,-99.99,,2013-03-25 07:31:00,
2013-03-25 00:42:00,49.0,21.0,-100.00,NE,55,9.0,10.0,33,-99.99,,,-99.99,,2013-03-25 07:42:00,
2013-03-25 00:52:00,48.0,22.0,-100.00,ENE,58,7.0,9.0,35,-99.99,,,-99.99,,2013-03-25 07:52:00,
2013-03-25 01:02:00,48.0,23.0,-100.00,ENE,62,7.0,9.0,37,-99.99,,,-99.99,,2013-03-25 08:02:00,
2013-03-25 01:11:00,48.0,22.0,-100.00,ENE,60,8.0,9.0,36,-99.99,,,-99.99,,2013-03-25 08:11:00,
2013-03-25 01:22:00,48.0,20.0,-100.00,NE,48,7.0,10.0,33,-99.99,,,-99.99,,2013-03-25 08:22:00,
2013-03-25 01:32:00,48.0,20.0,-100.00,NE,48,7.0,10.0,33,-99.99,,,-99.99,,2013-03-25 08:32:00,
2013-03-25 01:42:00,49.0,21.0,-100.00,NE,45,8.0,9.0,33,-99.99,,,-99.99,,2013-03-25 08:42:00,
2013-03-25 01:52:00,48.0,21.0,-100.00,NE,55,8.0,11.0,34,-99.99,,,-99.99,,2013-03-25 08:52:00,
2013-03-25 02:02:00,48.0,22.0,-100.00,NE,54,7.0,8.0,35,-99.99,,,-99.99,,2013-03-25 09:02:00,
2013-03-25 02:11:00,48.0,22.0,-100.00,NE,50,8.0,9.0,35,-99.99,,,-99.99,,2013-03-25 09:11:00,
2013-03-25 02:22:00,48.0,22.0,-100.00,NE,46,7.0,8.0,36,-99.99,,,-99.99,,2013-03-25 09:22:00,
2013-03-25 02:32:00,48.0,21.0,-100.00,NE,41,8.0,9.0,34,-99.99,,,-99.99,,2013-03-25 09:32:00,
2013-03-25 02:42:00,48.0,21.0,-100.00,NE,38,8.0,9.0,34,-99.99,,,-99.99,,2013-03-25 09:42:00,
2013-03-25 02:52:00,48.0,20.0,-100.00,NE,52,8.0,9.0,33,-99.99,,,-99.99,,2013-03-25 09:52:00,
2013-03-25 03:02:00,49.0,20.0,-100.00,NE,53,7.0,8.0,32,-99.99,,,-99.99,,2013-03-25 10:02:00,
2013-03-25 03:12:00,50.0,21.0,-100.00,ENE,57,7.0,8.0,31,-99.99,,,-99.99,,2013-03-25 10:12:00,
2013-03-25 03:22:00,48.0,20.0,-100.00,NE,53,8.0,9.0,33,-99.99,,,-99.99,,2013-03-25 10:22:00,
2013-03-25 03:32:00,48.0,20.0,-100.00,NE,46,8.0,9.0,33,-99.99,,,-99.99,,2013-03-25 10:32:00,
2013-03-25 03:42:00,48.0,20.0,-100.00,NE,47,8.0,9.0,33,-99.99,,,-99.99,,2013-03-25 10:42:00,
2013-03-25 03:52:00,48.0,20.0,-100.00,NE,49,7.0,9.0,33,-99.99,,,-99.99,,2013-03-25 10:52:00,
2013-03-25 04:02:00,49.0,20.0,-100.00,NE,56,8.0,10.0,32,-99.99,,,-99.99,,2013-03-25 11:02:00,
2013-03-25 04:12:00,49.0,20.0,-100.00,NE,54,9.0,10.0,32,-99.99,,,-99.99,,2013-03-25 11:12:00,
2013-03-25 04:23:00,48.0,20.0,-100.00,NE,50,8.0,10.0,33,-99.99,,,-99.99,,2013-03-25 11:23:00,
2013-03-25 04:32:00,47.0,20.0,-100.00,NE,51,8.0,10.0,34,-99.99,,,-99.99,,2013-03-25 11:32:00,
2013-03-25 04:42:00,48.0,20.0,-100.00,NE,48,8.0,10.0,33,-99.99,,,-99.99,,2013-03-25 11:42:00,
2013-03-25 04:52:00,46.0,21.0,-100.00,NE,50,8.0,10.0,36,-99.99,,,-99.99,,2013-03-25 11:52:00,
2013-03-25 05:02:00,47.0,20.0,-100.00,NE,49,8.0,10.0,34,-99.99,,,-99.99,,2013-03-25 12:02:00,
2013-03-25 05:12:00,48.0,20.0,-100.00,NE,50,9.0,10.0,32,-99.99,,,-99.99,,2013-03-25 12:12:00,
2013-03-25 05:22:00,48.0,20.0,-100.00,NE,49,9.0,11.0,32,-99.99,,,-99.99,,2013-03-25 12:22:00,
2013-03-25 05:32:00,48.0,20.0,-100.00,NE,49,8.0,9.0,33,-99.99,,,-99.99,,2013-03-25 12:32:00,
2013-03-25 05:42:00,47.0,21.0,-100.00,NE,51,8.0,9.0,36,-99.99,,,-99.99,,2013-03-25 12:42:00,
2013-03-25 05:52:00,47.0,21.0,-100.00,NE,51,9.0,10.0,36,-99.99,,,-99.99,,2013-03-25 12:52:00,
2013-03-25 06:02:00,46.0,21.0,-100.00,NE,53,6.0,9.0,37,-99.99,,,-99.99,,2013-03-25 13:02:00,
2013-03-25 06:12:00,46.0,22.0,-100.00,NE,48,5.0,8.0,38,-99.99,,,-99.99,,2013-03-25 13:12:00,
2013-03-25 06:22:00,46.0,20.0,-100.00,ENE,59,6.0,9.0,35,-99.99,,,-99.99,,2013-03-25 13:22:00,
2013-03-25 06:32:00,46.0,21.0,-100.00,NE,45,5.0,7.0,37,-99.99,,,-99.99,,2013-03-25 13:32:00,
2013-03-25 06:42:00,45.0,22.0,-100.00,NE,48,5.0,8.0,40,-99.99,,,-99.99,,2013-03-25 13:42:00,
2013-03-25 06:52:00,44.0,21.0,-100.00,NE,39,5.0,7.0,40,-99.99,,,-99.99,,2013-03-25 13:52:00,
2013-03-25 07:02:00,43.0,22.0,-100.00,NE,45,6.0,8.0,43,-99.99,,,-99.99,,2013-03-25 14:02:00,
2013-03-25 07:12:00,43.0,22.0,-100.00,NE,44,5.0,8.0,42,-99.99,,,-99.99,,2013-03-25 14:12:00,
2013-03-25 07:22:00,44.0,22.0,-100.00,NE,46,7.0,10.0,41,-99.99,,,-99.99,,2013-03-25 14:22:00,
2013-03-25 07:32:00,44.0,22.0,-100.00,NE,46,6.0,9.0,42,-99.99,,,-99.99,,2013-03-25 14:32:00,
2013-03-25 07:42:00,44.0,23.0,-100.00,NE,45,7.0,10.0,43,-99.99,,,-99.99,,2013-03-25 14:42:00,
2013-03-25 07:52:00,44.0,23.0,-100.00,NE,37,6.0,9.0,44,-99.99,,,-99.99,,2013-03-25 14:52:00,
2013-03-25 08:02:00,45.0,24.0,-100.00,NE,39,8.0,11.0,43,-99.99,,,-99.99,,2013-03-25 15:02:00,
2013-03-25 08:12:00,46.0,24.0,-100.00,NE,46,7.0,10.0,42,-99.99,,,-99.99,,2013-03-25 15:12:00,
2013-03-25 08:22:00,48.0,24.0,-100.00,NE,54,7.0,9.0,38,-99.99,,,-99.99,,2013-03-25 15:22:00,
2013-03-25 08:32:00,49.0,24.0,-100.00,NE,49,7.0,9.0,37,-99.99,,,-99.99,,2013-03-25 15:32:00,
2013-03-25 08:42:00,51.0,26.0,-100.00,NE,49,5.0,8.0,37,-99.99,,,-99.99,,2013-03-25 15:42:00,
2013-03-25 08:52:00,53.0,27.0,-100.00,ENE,65,2.0,4.0,36,-99.99,,,-99.99,,2013-03-25 15:52:00,
2013-03-25 09:02:00,56.0,27.0,-100.00,ENE,69,2.0,5.0,33,-99.99,,,-99.99,,2013-03-25 16:02:00,
2013-03-25 09:12:00,56.0,27.0,-100.00,ENE,69,2.0,5.0,33,-99.99,,,-99.99,,2013-03-25 16:12:00,
2013-03-25 09:22:00,60.0,26.0,-100.00,NE,50,3.0,5.0,27,-99.99,,,-99.99,,2013-03-25 16:22:00,
2013-03-25 09:32:00,62.0,28.0,-100.00,ENE,57,2.0,4.0,27,-99.99,,,-99.99,,2013-03-25 16:32:00,
2013-03-25 09:42:00,65.0,29.0,-100.00,NNE,15,1.0,3.0,26,-99.99,,,-99.99,,2013-03-25 16:42:00,
2013-03-25 09:52:00,67.0,30.0,-100.00,SE,137,1.0,3.0,25,-99.99,,,-99.99,,2013-03-25 16:52:00,
2013-03-25 10:02:00,69.0,31.0,-100.00,ENE,68,2.0,4.0,24,-99.99,,,-99.99,,2013-03-25 17:02:00,
2013-03-25 10:12:00,69.0,31.0,-100.00,North,9,2.0,4.0,24,-99.99,,,-99.99,,2013-03-25 17:12:00,
2013-03-25 10:22:00,69.0,30.0,-100.00,WNW,300,2.0,4.0,23,-99.99,,,-99.99,,2013-03-25 17:22:00,
2013-03-25 10:32:00,69.0,30.0,-100.00,NNW,339,3.0,5.0,23,-99.99,,,-99.99,,2013-03-25 17:32:00,
2013-03-25 10:42:00,70.0,30.0,-100.00,West,267,2.0,4.0,23,-99.99,,,-99.99,,2013-03-25 17:42:00,
2013-03-25 10:52:00,70.0,30.0,-100.00,WNW,295,2.0,5.0,23,-99.99,,,-99.99,,2013-03-25 17:52:00,
2013-03-25 11:03:00,71.0,32.0,-100.00,SW,233,4.0,8.0,24,-99.99,,,-99.99,,2013-03-25 18:03:00,
2013-03-25 11:12:00,71.0,31.0,-100.00,WNW,284,2.0,6.0,23,-99.99,,,-99.99,,2013-03-25 18:12:00,
2013-03-25 11:22:00,72.0,32.0,-100.00,SW,224,4.0,8.0,23,-99.99,,,-99.99,,2013-03-25 18:22:00,
2013-03-25 11:32:00,73.0,30.0,-100.00,SSW,203,3.0,6.0,20,-99.99,,,-99.99,,2013-03-25 18:32:00,
2013-03-25 11:42:00,73.0,31.0,-100.00,SW,226,5.0,9.0,21,-99.99,,,-99.99,,2013-03-25 18:42:00,
2013-03-25 11:52:00,73.0,30.0,-100.00,SSW,204,4.0,9.0,20,-99.99,,,-99.99,,2013-03-25 18:52:00,
2013-03-25 12:02:00,73.0,31.0,-100.00,ESE,115,3.0,8.0,21,-99.99,,,-99.99,,2013-03-25 19:02:00,
2013-03-25 12:12:00,74.0,32.0,-100.00,WSW,238,4.0,9.0,21,-99.99,,,-99.99,,2013-03-25 19:12:00,
2013-03-25 12:22:00,74.0,32.0,-100.00,WSW,241,4.0,10.0,21,-99.99,,,-99.99,,2013-03-25 19:22:00,
2013-03-25 12:32:00,74.0,30.0,-100.00,WSW,247,4.0,10.0,20,-99.99,,,-99.99,,2013-03-25 19:32:00,
2013-03-25 12:42:00,75.0,30.0,-100.00,West,281,4.0,10.0,19,-99.99,,,-99.99,,2013-03-25 19:42:00,
2013-03-25 12:52:00,75.0,29.0,-100.00,WSW,248,7.0,12.0,18,-99.99,,,-99.99,,2013-03-25 19:52:00,
2013-03-25 13:01:00,75.0,27.0,-100.00,WSW,238,4.0,8.0,17,-99.99,,,-99.99,,2013-03-25 20:01:00,
2013-03-25 13:12:00,75.0,26.0,-100.00,West,271,6.0,14.0,16,-99.99,,,-99.99,,2013-03-25 20:12:00,
2013-03-25 13:22:00,76.0,25.0,-100.00,West,267,4.0,11.0,15,-99.99,,,-99.99,,2013-03-25 20:22:00,
2013-03-25 13:32:00,76.0,25.0,-100.00,West,271,6.0,14.0,15,-99.99,,,-99.99,,2013-03-25 20:32:00,
2013-03-25 13:42:00,76.0,25.0,-100.00,SW,217,5.0,11.0,15,-99.99,,,-99.99,,2013-03-25 20:42:00,
2013-03-25 13:52:00,77.0,24.0,-100.00,West,275,5.0,13.0,14,-99.99,,,-99.99,,2013-03-25 20:52:00,
2013-03-25 14:02:00,76.0,23.0,-100.00,WSW,238,7.0,15.0,14,-99.99,,,-99.99,,2013-03-25 21:02:00,
2013-03-25 14:12:00,76.0,23.0,-100.00,SW,232,6.0,12.0,14,-99.99,,,-99.99,,2013-03-25 21:12:00,
2013-03-25 14:22:00,76.0,27.0,-100.00,WSW,246,7.0,13.0,16,-99.99,,,-99.99,,2013-03-25 21:22:00,
2013-03-25 14:32:00,76.0,31.0,-100.00,SW,231,10.0,15.0,19,-99.99,,,-99.99,,2013-03-25 21:32:00,
2013-03-25 14:42:00,76.0,32.0,-100.00,SW,230,8.0,13.0,20,-99.99,,,-99.99,,2013-03-25 21:42:00,
2013-03-25 14:52:00,76.0,31.0,-100.00,SW,232,7.0,13.0,19,-99.99,,,-99.99,,2013-03-25 21:52:00,
2013-03-25 15:03:00,76.0,32.0,-100.00,SW,234,8.0,14.0,20,-99.99,,,-99.99,,2013-03-25 22:03:00,
2013-03-25 15:12:00,76.0,33.0,-100.00,SW,227,9.0,17.0,21,-99.99,,,-99.99,,2013-03-25 22:12:00,
2013-03-25 15:23:00,76.0,34.0,-100.00,SW,236,11.0,17.0,22,-99.99,,,-99.99,,2013-03-25 22:23:00,
2013-03-25 15:32:00,76.0,36.0,-100.00,SW,235,11.0,18.0,23,-99.99,,,-99.99,,2013-03-25 22:32:00,
2013-03-25 15:42:00,75.0,36.0,-100.00,SW,231,12.0,18.0,24,-99.99,,,-99.99,,2013-03-25 22:42:00,
2013-03-25 15:52:00,74.0,38.0,-100.00,SW,229,12.0,18.0,27,-99.99,,,-99.99,,2013-03-25 22:52:00,
2013-03-25 16:02:00,74.0,35.0,-100.00,SW,226,13.0,18.0,24,-99.99,,,-99.99,,2013-03-25 23:02:00,
2013-03-25 16:12:00,74.0,37.0,-100.00,SW,226,11.0,16.0,26,-99.99,,,-99.99,,2013-03-25 23:12:00,
2013-03-25 16:22:00,74.0,36.0,-100.00,SW,222,10.0,17.0,25,-99.99,,,-99.99,,2013-03-25 23:22:00,
2013-03-25 16:32:00,74.0,33.0,-100.00,SW,222,10.0,15.0,22,-99.99,,,-99.99,,2013-03-25 23:32:00,
2013-03-25 16:42:00,74.0,35.0,-100.00,SW,224,10.0,15.0,24,-99.99,,,-99.99,,2013-03-25 23:42:00,
2013-03-25 16:52:00,74.0,35.0,-100.00,SW,224,9.0,14.0,24,-99.99,,,-99.99,,2013-03-25 23:52:00,
2013-03-25 17:02:00,74.0,35.0,-100.00,SW,223,10.0,16.0,24,-99.99,,,-99.99,,2013-03-26 00:02:00,
2013-03-25 17:12:00,74.0,38.0,-100.00,SW,231,9.0,13.0,27,-99.99,,,-99.99,,2013-03-26 00:12:00,
2013-03-25 17:22:00,73.0,39.0,-100.00,SW,220,10.0,15.0,29,-99.99,,,-99.99,,2013-03-26 00:22:00,
2013-03-25 17:32:00,73.0,41.0,-100.00,SW,223,10.0,16.0,31,-99.99,,,-99.99,,2013-03-26 00:32:00,
2013-03-25 17:42:00,73.0,41.0,-100.00,SW,223,10.0,16.0,31,-99.99,,,-99.99,,2013-03-26 00:42:00,
2013-03-25 17:52:00,71.0,40.0,-100.00,SW,229,11.0,15.0,32,-99.99,,,-99.99,,2013-03-26 00:52:00,
2013-03-25 18:02:00,71.0,40.0,-100.00,SW,223,11.0,16.0,33,-99.99,,,-99.99,,2013-03-26 01:02:00,
2013-03-25 18:12:00,70.0,40.0,-100.00,SW,227,9.0,13.0,34,-99.99,,,-99.99,,2013-03-26 01:12:00,
2013-03-25 18:22:00,70.0,42.0,-100.00,SW,224,9.0,13.0,36,-99.99,,,-99.99,,2013-03-26 01:22:00,
2013-03-25 18:32:00,69.0,42.0,-100.00,SW,225,10.0,15.0,37,-99.99,,,-99.99,,2013-03-26 01:32:00,
2013-03-25 18:42:00,68.0,41.0,-100.00,SW,228,8.0,12.0,38,-99.99,,,-99.99,,2013-03-26 01:42:00,
2013-03-25 18:52:00,68.0,42.0,-100.00,SW,223,8.0,13.0,39,-99.99,,,-99.99,,2013-03-26 01:52:00,
2013-03-25 19:02:00,67.0,42.0,-100.00,SW,223,8.0,11.0,40,-99.99,,,-99.99,,2013-03-26 02:02:00,
2013-03-25 19:22:00,66.0,42.0,-100.00,SW,222,6.0,9.0,42,-99.99,,,-99.99,,2013-03-26 02:22:00,
2013-03-25 19:31:00,65.0,43.0,-100.00,SW,223,5.0,9.0,44,-99.99,,,-99.99,,2013-03-26 02:31:00,
2013-03-25 19:42:00,64.0,42.0,-100.00,SW,232,6.0,8.0,44,-99.99,,,-99.99,,2013-03-26 02:42:00,
2013-03-25 19:52:00,63.0,42.0,-100.00,WSW,239,4.0,6.0,46,-99.99,,,-99.99,,2013-03-26 02:52:00,
2013-03-25 20:02:00,62.0,42.0,-100.00,SW,224,2.0,4.0,48,-99.99,,,-99.99,,2013-03-26 03:02:00,
2013-03-25 20:12:00,62.0,41.0,-100.00,SW,217,3.0,5.0,46,-99.99,,,-99.99,,2013-03-26 03:12:00,
2013-03-25 20:22:00,62.0,42.0,-100.00,SW,214,2.0,3.0,47,-99.99,,,-99.99,,2013-03-26 03:22:00,
2013-03-25 20:33:00,61.0,41.0,-100.00,WSW,237,1.0,2.0,48,-99.99,,,-99.99,,2013-03-26 03:33:00,
2013-03-25 20:42:00,61.0,41.0,-100.00,South,186,0.0,1.0,48,-99.99,,,-99.99,,2013-03-26 03:42:00,
2013-03-25 20:52:00,60.0,41.0,-100.00,East,93,2.0,3.0,49,-99.99,,,-99.99,,2013-03-26 03:52:00,
2013-03-25 21:03:00,60.0,41.0,-100.00,East,93,2.0,3.0,49,-99.99,,,-99.99,,2013-03-26 04:03:00,
2013-03-25 21:12:00,57.0,41.0,-100.00,NE,46,3.0,4.0,55,-99.99,,,-99.99,,2013-03-26 04:12:00,
2013-03-25 21:23:00,55.0,41.0,-100.00,NE,44,4.0,5.0,60,-99.99,,,-99.99,,2013-03-26 04:23:00,
2013-03-25 21:32:00,54.0,41.0,-100.00,NE,42,4.0,6.0,61,-99.99,,,-99.99,,2013-03-26 04:32:00,
2013-03-25 21:42:00,54.0,41.0,-100.00,NE,40,5.0,8.0,61,-99.99,,,-99.99,,2013-03-26 04:42:00,
2013-03-25 21:52:00,53.0,41.0,-100.00,NE,52,6.0,8.0,63,-99.99,,,-99.99,,2013-03-26 04:52:00,
2013-03-25 22:02:00,53.0,41.0,-100.00,NE,55,7.0,9.0,63,-99.99,,,-99.99,,2013-03-26 05:02:00,
2013-03-25 22:12:00,52.0,41.0,-100.00,NE,46,6.0,8.0,65,-99.99,,,-99.99,,2013-03-26 05:12:00,
2013-03-25 22:22:00,50.0,39.0,-100.00,NNE,29,5.0,7.0,67,-99.99,,,-99.99,,2013-03-26 05:22:00,
2013-03-25 22:32:00,50.0,40.0,-100.00,NE,38,5.0,8.0,69,-99.99,,,-99.99,,2013-03-26 05:32:00,
2013-03-25 22:42:00,50.0,40.0,-100.00,NE,46,6.0,8.0,68,-99.99,,,-99.99,,2013-03-26 05:42:00,
2013-03-25 22:52:00,50.0,40.0,-100.00,NE,54,5.0,8.0,69,-99.99,,,-99.99,,2013-03-26 05:52:00,
2013-03-25 23:01:00,49.0,40.0,-100.00,NNE,24,3.0,4.0,70,-99.99,,,-99.99,,2013-03-26 06:01:00,
2013-03-25 23:12:00,48.0,39.0,-100.00,NNE,31,5.0,6.0,71,-99.99,,,-99.99,,2013-03-26 06:12:00,
2013-03-25 23:21:00,48.0,39.0,-100.00,NNE,28,5.0,6.0,71,-99.99,,,-99.99,,2013-03-26 06:21:00,
2013-03-25 23:32:00,48.0,39.0,-100.00,NE,35,5.0,6.0,71,-99.99,,,-99.99,,2013-03-26 06:32:00,
2013-03-25 23:42:00,48.0,39.0,-100.00,NE,42,4.0,7.0,72,-99.99,,,-99.99,,2013-03-26 06:42:00,
2013-03-25 23:52:00,48.0,39.0,-100.00,NE,49,4.0,6.0,72,-99.99,,,-99.99,,2013-03-26 06:52:00,